To NAV CANADA Home Page Login to a new session Search on AWWS site Feedback and Comments Disclaimer Vers la page française équivalente Tips FAQ What's new on the site To the Forecasts and Observations / NOTAM section To "File a Flight Plan" website Publications and other links Update of the User's profile FIC Telephone Numbers My Weather Data Folder Route Weather Data Regional Weather Data Local Weather Data To the Forecasts and Observations / NOTAM section
Request Generated 10/18/2017 at 03:58:43 UTC . Weather information available at that time is displayed.


Save this request

METAR/TAF

KAMLOOPS/BC    

METAR CYKA 180300Z 06003KT 40SM FEW060 BKN090 06/03 A2999 RMK CU2AC4
SLP165=
METAR CYKA 180200Z 16004KT 40SM FEW050TCU BKN080 BKN230 07/03 A2998
RMK TCU2AC3CI1 VIRGA SLP159=
SPECI CYKA 180142Z 17004KT 40SM FEW030 SCT050CB BKN080 07/03 A2998
RMK SF1CB3AC3 SLP158=
METAR CYKA 180100Z 10006KT 080V150 40SM -SHRA SCT050CB OVC080 08/03
A2997 RMK CB4AC4 SLP155=

TAF CYKA 180040Z 1801/1813 12007KT P6SM FEW040 SCT090 TEMPO 1801/1805
P6SM -SHRA SCT040 BKN090
FM180500 10007KT P6SM FEW100 SCT240
FM181000 10007KT P6SM BKN140 OVC180
RMK NXT FCST BY 180700Z=

CLINTON BC/AUTO OBS    

CWCL - METAR not available

CWCL - No TAF is issued for this station

LYTTON BC/OBS    (show WxCam)

METAR CWLY 180300Z AUTO 20012G21KT 170V250 9SM CLR 10/02 A2999 RMK
SLP161=
METAR CWLY 180200Z AUTO 20017G25KT 9SM CLR 10/03 A2997 RMK SLP153=
METAR CWLY 180100Z AUTO 21015G27KT 9SM SCT110 BKN140 11/03 A2994 RMK
SLP144=

CWLY - No TAF is issued for this station

CLINTON/BLEIBLER RANCH/BC    (show WxCam)

METAR CYIN 180300Z AUTO VRB02KT 9SM BKN180 BKN200 M00/M02 A2991 RMK
SLP150=
METAR CYIN 180200Z AUTO VRB02KT 9SM BKN080 02/M04 A2991 RMK SLP141=
METAR CYIN 180100Z AUTO 27004KT 240V300 9SM FEW048 SCT070 OVC090
03/M03 A2989 RMK SLP135=

CYIN - No TAF is issued for this station



Your time UTC time
Weather data provided by Environment Canada and NAV CANADA